sensor_id;sensor_type;location;lat;lon;timestamp;pressure;altitude;pressure_sealevel;temperature;humidity
25156;BME280;21913;52.456;13.634;2023-05-19T00:04:55;101329.06;;;16.01;58.44
25156;BME280;21913;52.456;13.634;2023-05-19T00:09:57;101325.59;;;15.99;58.47
25156;BME280;21913;52.456;13.634;2023-05-19T00:14:59;101316.03;;;16.00;58.35
25156;BME280;21913;52.456;13.634;2023-05-19T00:20:00;101322.13;;;15.99;58.63
25156;BME280;21913;52.456;13.634;2023-05-19T00:25:02;101318.63;;;15.97;58.72
25156;BME280;21913;52.456;13.634;2023-05-19T00:30:04;101309.94;;;15.96;58.44
25156;BME280;21913;52.456;13.634;2023-05-19T00:35:06;101312.56;;;15.95;58.67
25156;BME280;21913;52.456;13.634;2023-05-19T00:40:08;101305.59;;;15.94;58.69
25156;BME280;21913;52.456;13.634;2023-05-19T00:45:10;101300.38;;;15.92;58.77
25156;BME280;21913;52.456;13.634;2023-05-19T00:50:12;101308.19;;;15.92;58.68
25156;BME280;21913;52.456;13.634;2023-05-19T00:55:13;101305.59;;;15.91;59.05
25156;BME280;21913;52.456;13.634;2023-05-19T01:00:15;101314.31;;;15.90;58.88
25156;BME280;21913;52.456;13.634;2023-05-19T01:05:17;101312.56;;;15.89;59.04
25156;BME280;21913;52.456;13.634;2023-05-19T01:10:19;101306.50;;;15.88;58.99
25156;BME280;21913;52.456;13.634;2023-05-19T01:15:21;101308.22;;;15.86;58.92
25156;BME280;21913;52.456;13.634;2023-05-19T01:20:35;101301.25;;;15.87;58.92
25156;BME280;21913;52.456;13.634;2023-05-19T01:30:44;101306.47;;;15.85;59.28
25156;BME280;21913;52.456;13.634;2023-05-19T01:35:49;101300.41;;;15.83;59.16
25156;BME280;21913;52.456;13.634;2023-05-19T01:40:52;101300.38;;;15.82;59.31
25156;BME280;21913;52.456;13.634;2023-05-19T01:45:54;101296.03;;;15.81;59.18
25156;BME280;21913;52.456;13.634;2023-05-19T01:50:57;101293.44;;;15.79;59.31
25156;BME280;21913;52.456;13.634;2023-05-19T01:55:59;101290.84;;;15.79;59.43
25156;BME280;21913;52.456;13.634;2023-05-19T02:11:39;101298.69;;;15.77;59.58
25156;BME280;21913;52.456;13.634;2023-05-19T02:16:44;101299.53;;;15.76;59.43
25156;BME280;21913;52.456;13.634;2023-05-19T02:21:47;101302.13;;;15.75;59.73
25156;BME280;21913;52.456;13.634;2023-05-19T02:26:50;101307.34;;;15.75;59.28
25156;BME280;21913;52.456;13.634;2023-05-19T02:31:52;101299.53;;;15.73;59.60
25156;BME280;21913;52.456;13.634;2023-05-19T02:36:53;101298.69;;;15.73;59.58
25156;BME280;21913;52.456;13.634;2023-05-19T02:41:56;101297.81;;;15.72;59.71
25156;BME280;21913;52.456;13.634;2023-05-19T02:46:57;101301.28;;;15.71;59.57
25156;BME280;21913;52.456;13.634;2023-05-19T02:51:59;101294.31;;;15.70;59.48
25156;BME280;21913;52.456;13.634;2023-05-19T02:57:01;101292.59;;;15.69;59.79
25156;BME280;21913;52.456;13.634;2023-05-19T03:02:02;101292.59;;;15.69;59.67
25156;BME280;21913;52.456;13.634;2023-05-19T03:07:04;101291.72;;;15.67;59.68
25156;BME280;21913;52.456;13.634;2023-05-19T03:12:06;101286.50;;;15.67;59.71
25156;BME280;21913;52.456;13.634;2023-05-19T03:17:08;101286.53;;;15.66;59.88
25156;BME280;21913;52.456;13.634;2023-05-19T03:22:09;101286.53;;;15.66;59.84
25156;BME280;21913;52.456;13.634;2023-05-19T03:27:11;101285.63;;;15.65;59.87
25156;BME280;21913;52.456;13.634;2023-05-19T03:32:12;101283.03;;;15.64;60.10
25156;BME280;21913;52.456;13.634;2023-05-19T03:37:14;101279.53;;;15.63;60.09
25156;BME280;21913;52.456;13.634;2023-05-19T03:42:16;101284.75;;;15.63;59.78
25156;BME280;21913;52.456;13.634;2023-05-19T03:47:17;101286.47;;;15.61;59.72
25156;BME280;21913;52.456;13.634;2023-05-19T03:52:34;101288.22;;;15.61;59.75
25156;BME280;21913;52.456;13.634;2023-05-19T03:57:46;101289.94;;;15.60;59.74
25156;BME280;21913;52.456;13.634;2023-05-19T04:02:48;101292.53;;;15.60;59.91
25156;BME280;21913;52.456;13.634;2023-05-19T04:07:49;101298.63;;;15.59;60.03
25156;BME280;21913;52.456;13.634;2023-05-19T04:12:51;101300.38;;;15.59;60.22
25156;BME280;21913;52.456;13.634;2023-05-19T04:17:52;101302.13;;;15.58;60.17
25156;BME280;21913;52.456;13.634;2023-05-19T04:22:54;101316.91;;;15.58;60.09
25156;BME280;21913;52.456;13.634;2023-05-19T04:27:55;101310.81;;;15.57;60.17
25156;BME280;21913;52.456;13.634;2023-05-19T04:32:57;101306.47;;;15.56;60.09
25156;BME280;21913;52.456;13.634;2023-05-19T04:37:59;101303.00;;;15.56;60.33
25156;BME280;21913;52.456;13.634;2023-05-19T04:43:04;101300.38;;;15.54;60.13
25156;BME280;21913;52.456;13.634;2023-05-19T04:48:06;101300.38;;;15.54;60.21
25156;BME280;21913;52.456;13.634;2023-05-19T04:53:08;101296.03;;;15.53;60.10
25156;BME280;21913;52.456;13.634;2023-05-19T04:58:10;101296.91;;;15.52;60.37
25156;BME280;21913;52.456;13.634;2023-05-19T05:03:12;101296.91;;;15.52;60.19
25156;BME280;21913;52.456;13.634;2023-05-19T05:08:14;101294.31;;;15.52;60.36
25156;BME280;21913;52.456;13.634;2023-05-19T05:13:19;101292.56;;;15.51;60.25
25156;BME280;21913;52.456;13.634;2023-05-19T05:18:22;101297.78;;;15.51;60.47
25156;BME280;21913;52.456;13.634;2023-05-19T05:23:23;101296.91;;;15.52;60.47
25156;BME280;21913;52.456;13.634;2023-05-19T05:28:25;101298.66;;;15.48;60.31
25156;BME280;21913;52.456;13.634;2023-05-19T05:33:28;101300.41;;;15.49;60.31
25156;BME280;21913;52.456;13.634;2023-05-19T05:38:30;101298.66;;;15.48;60.49
25156;BME280;21913;52.456;13.634;2023-05-19T05:43:32;101297.78;;;15.48;60.37
25156;BME280;21913;52.456;13.634;2023-05-19T05:48:37;101301.25;;;15.48;60.34
25156;BME280;21913;52.456;13.634;2023-05-19T05:53:43;101301.25;;;15.48;60.38
25156;BME280;21913;52.456;13.634;2023-05-19T05:58:49;101293.44;;;15.47;60.58
25156;BME280;21913;52.456;13.634;2023-05-19T06:03:51;101295.19;;;15.46;60.43
25156;BME280;21913;52.456;13.634;2023-05-19T06:08:56;101305.59;;;15.46;60.56
25156;BME280;21913;52.456;13.634;2023-05-19T06:13:58;101299.53;;;15.46;60.56
25156;BME280;21913;52.456;13.634;2023-05-19T06:19:22;101300.41;;;15.45;60.59
25156;BME280;21913;52.456;13.634;2023-05-19T06:24:24;101296.03;;;15.44;60.81
25156;BME280;21913;52.456;13.634;2023-05-19T06:29:26;101297.78;;;15.45;60.72
25156;BME280;21913;52.456;13.634;2023-05-19T06:34:30;101292.56;;;15.43;60.84
25156;BME280;21913;52.456;13.634;2023-05-19T06:39:32;101287.34;;;15.43;60.57
25156;BME280;21913;52.456;13.634;2023-05-19T06:44:33;101289.09;;;15.41;60.71
25156;BME280;21913;52.456;13.634;2023-05-19T06:49:35;101296.03;;;15.42;60.84
25156;BME280;21913;52.456;13.634;2023-05-19T06:54:37;101284.75;;;15.42;60.85
25156;BME280;21913;52.456;13.634;2023-05-19T06:59:39;101276.03;;;15.37;60.09
25156;BME280;21913;52.456;13.634;2023-05-19T07:04:40;101281.25;;;15.31;59.38
25156;BME280;21913;52.456;13.634;2023-05-19T07:09:43;101287.34;;;15.31;58.55
25156;BME280;21913;52.456;13.634;2023-05-19T07:14:45;101275.19;;;15.32;58.57
25156;BME280;21913;52.456;13.634;2023-05-19T07:19:48;101281.28;;;15.35;58.98
25156;BME280;21913;52.456;13.634;2023-05-19T07:24:50;101279.53;;;15.37;58.95
25156;BME280;21913;52.456;13.634;2023-05-19T07:29:53;101276.06;;;15.40;58.93
25156;BME280;21913;52.456;13.634;2023-05-19T07:34:54;101278.66;;;15.40;58.98
25156;BME280;21913;52.456;13.634;2023-05-19T07:39:56;101277.78;;;15.41;59.09
25156;BME280;21913;52.456;13.634;2023-05-19T07:44:57;101269.97;;;15.41;59.47
25156;BME280;21913;52.456;13.634;2023-05-19T07:49:59;101269.97;;;15.42;59.52
25156;BME280;21913;52.456;13.634;2023-05-19T07:55:00;101271.69;;;15.43;59.85
25156;BME280;21913;52.456;13.634;2023-05-19T08:00:03;101265.59;;;15.43;59.67
25156;BME280;21913;52.456;13.634;2023-05-19T08:05:12;101262.13;;;15.44;59.76
25156;BME280;21913;52.456;13.634;2023-05-19T08:10:13;101263.00;;;15.43;60.19
25156;BME280;21913;52.456;13.634;2023-05-19T08:15:15;101266.47;;;15.43;60.08
25156;BME280;21913;52.456;13.634;2023-05-19T08:20:16;101253.47;;;15.45;60.02
25156;BME280;21913;52.456;13.634;2023-05-19T08:25:18;101260.41;;;15.46;60.45
25156;BME280;21913;52.456;13.634;2023-05-19T08:30:20;101254.31;;;15.45;60.22
25156;BME280;21913;52.456;13.634;2023-05-19T08:35:21;101251.72;;;15.45;60.67
25156;BME280;21913;52.456;13.634;2023-05-19T08:40:23;101247.38;;;15.44;60.72
25156;BME280;21913;52.456;13.634;2023-05-19T08:45:25;101242.16;;;15.44;60.50
25156;BME280;21913;52.456;13.634;2023-05-19T08:50:29;101232.59;;;15.45;60.83
25156;BME280;21913;52.456;13.634;2023-05-19T08:56:10;101226.50;;;15.44;60.73
25156;BME280;21913;52.456;13.634;2023-05-19T09:01:16;101224.75;;;15.43;60.96
25156;BME280;21913;52.456;13.634;2023-05-19T09:06:18;101212.59;;;15.42;60.86
25156;BME280;21913;52.456;13.634;2023-05-19T09:11:20;101216.06;;;15.43;61.16
25156;BME280;21913;52.456;13.634;2023-05-19T09:16:21;101205.63;;;15.43;60.99
25156;BME280;21913;52.456;13.634;2023-05-19T09:21:30;101208.22;;;15.43;60.93
25156;BME280;21913;52.456;13.634;2023-05-19T09:26:39;101201.28;;;15.42;61.21
25156;BME280;21913;52.456;13.634;2023-05-19T09:36:48;101192.97;;;16.73;54.80
25156;BME280;21913;52.456;13.634;2023-05-19T09:41:53;101188.97;;;17.34;53.75
25156;BME280;21913;52.456;13.634;2023-05-19T09:46:56;101172.94;;;17.68;52.97
25156;BME280;21913;52.456;13.634;2023-05-19T09:52:00;101184.06;;;17.90;52.60
25156;BME280;21913;52.456;13.634;2023-05-19T09:57:03;101175.22;;;18.00;52.42
25156;BME280;21913;52.456;13.634;2023-05-19T10:02:14;101168.13;;;18.08;52.50
25156;BME280;21913;52.456;13.634;2023-05-19T10:07:18;101170.72;;;18.11;52.67
25156;BME280;21913;52.456;13.634;2023-05-19T10:12:20;101167.19;;;18.12;52.62
25156;BME280;21913;52.456;13.634;2023-05-19T10:17:23;101170.69;;;18.12;52.98
25156;BME280;21913;52.456;13.634;2023-05-19T10:22:26;101148.91;;;18.10;53.02
25156;BME280;21913;52.456;13.634;2023-05-19T10:27:28;101142.75;;;18.10;53.09
25156;BME280;21913;52.456;13.634;2023-05-19T10:32:31;101144.53;;;18.08;52.98
25156;BME280;21913;52.456;13.634;2023-05-19T10:37:42;101147.19;;;18.06;53.26
25156;BME280;21913;52.456;13.634;2023-05-19T10:43:11;101151.56;;;18.04;53.50
25156;BME280;21913;52.456;13.634;2023-05-19T10:48:14;101149.03;;;17.98;53.47
25156;BME280;21913;52.456;13.634;2023-05-19T10:53:17;101149.09;;;17.95;53.67
25156;BME280;21913;52.456;13.634;2023-05-19T10:58:38;101141.25;;;17.92;53.98
25156;BME280;21913;52.456;13.634;2023-05-19T11:03:53;101137.81;;;17.87;54.10
25156;BME280;21913;52.456;13.634;2023-05-19T11:09:15;101121.31;;;17.83;54.35
25156;BME280;21913;52.456;13.634;2023-05-19T11:14:25;101124.81;;;17.81;54.49
25156;BME280;21913;52.456;13.634;2023-05-19T11:19:30;101124.88;;;17.76;54.62
25156;BME280;21913;52.456;13.634;2023-05-19T11:24:37;101128.41;;;17.72;54.62
25156;BME280;21913;52.456;13.634;2023-05-19T11:29:39;101117.09;;;17.69;54.63
25156;BME280;21913;52.456;13.634;2023-05-19T11:34:43;101114.50;;;17.66;54.82
25156;BME280;21913;52.456;13.634;2023-05-19T11:39:45;101111.06;;;17.62;55.15
25156;BME280;21913;52.456;13.634;2023-05-19T11:44:47;101109.38;;;17.58;55.12
25156;BME280;21913;52.456;13.634;2023-05-19T11:49:50;101106.78;;;17.55;55.67
25156;BME280;21913;52.456;13.634;2023-05-19T11:54:52;101113.81;;;17.51;55.35
25156;BME280;21913;52.456;13.634;2023-05-19T11:59:53;101107.75;;;17.48;55.71
25156;BME280;21913;52.456;13.634;2023-05-19T12:04:55;101103.44;;;17.45;55.74
25156;BME280;21913;52.456;13.634;2023-05-19T12:09:58;101099.94;;;17.43;55.92
25156;BME280;21913;52.456;13.634;2023-05-19T12:15:01;101093.88;;;17.40;55.86
25156;BME280;21913;52.456;13.634;2023-05-19T12:20:04;101084.31;;;17.37;56.17
25156;BME280;21913;52.456;13.634;2023-05-19T12:25:06;101095.66;;;17.36;56.17
25156;BME280;21913;52.456;13.634;2023-05-19T12:30:08;101090.47;;;17.33;56.29
25156;BME280;21913;52.456;13.634;2023-05-19T12:35:09;101088.78;;;17.29;56.41
25156;BME280;21913;52.456;13.634;2023-05-19T12:40:14;101076.59;;;17.26;56.61
25156;BME280;21913;52.456;13.634;2023-05-19T12:45:19;101073.13;;;17.24;56.83
25156;BME280;21913;52.456;13.634;2023-05-19T12:50:28;101067.03;;;17.22;56.79
25156;BME280;21913;52.456;13.634;2023-05-19T12:55:37;101061.00;;;17.19;56.64
25156;BME280;21913;52.456;13.634;2023-05-19T13:00:43;101062.75;;;17.17;56.85
25156;BME280;21913;52.456;13.634;2023-05-19T13:05:47;101057.53;;;17.15;57.12
25156;BME280;21913;52.456;13.634;2023-05-19T13:10:49;101051.47;;;17.12;57.15
25156;BME280;21913;52.456;13.634;2023-05-19T13:15:51;101056.69;;;17.12;57.34
25156;BME280;21913;52.456;13.634;2023-05-19T13:20:52;101052.41;;;17.07;57.33
25156;BME280;21913;52.456;13.634;2023-05-19T13:25:54;101052.41;;;17.04;57.24
25156;BME280;21913;52.456;13.634;2023-05-19T13:30:55;101061.16;;;17.03;57.41
25156;BME280;21913;52.456;13.634;2023-05-19T13:35:57;101044.59;;;17.01;57.40
25156;BME280;21913;52.456;13.634;2023-05-19T13:40:58;101044.59;;;17.01;57.72
25156;BME280;21913;52.456;13.634;2023-05-19T13:46:00;101055.97;;;16.99;57.60
25156;BME280;21913;52.456;13.634;2023-05-19T13:51:01;101049.00;;;16.98;57.53
25156;BME280;21913;52.456;13.634;2023-05-19T13:56:03;101042.91;;;16.97;57.59
25156;BME280;21913;52.456;13.634;2023-05-19T14:01:05;101044.66;;;16.95;58.06
25156;BME280;21913;52.456;13.634;2023-05-19T14:06:06;101041.22;;;16.93;58.08
25156;BME280;21913;52.456;13.634;2023-05-19T14:11:08;101037.75;;;16.91;57.96
25156;BME280;21913;52.456;13.634;2023-05-19T14:16:09;101032.53;;;16.90;57.92
25156;BME280;21913;52.456;13.634;2023-05-19T14:21:11;101029.06;;;16.88;58.04
25156;BME280;21913;52.456;13.634;2023-05-19T14:26:12;101027.34;;;16.87;58.32
25156;BME280;21913;52.456;13.634;2023-05-19T14:31:14;101028.22;;;16.86;58.25
25156;BME280;21913;52.456;13.634;2023-05-19T14:36:16;101038.69;;;16.84;58.10
25156;BME280;21913;52.456;13.634;2023-05-19T14:41:17;101029.13;;;16.83;58.21
25156;BME280;21913;52.456;13.634;2023-05-19T14:46:19;101036.13;;;16.81;58.32
25156;BME280;21913;52.456;13.634;2023-05-19T14:51:20;101040.47;;;16.80;58.28
25156;BME280;21913;52.456;13.634;2023-05-19T14:56:22;101039.59;;;16.78;58.73
25156;BME280;21913;52.456;13.634;2023-05-19T15:01:23;101037.88;;;16.77;58.68
25156;BME280;21913;52.456;13.634;2023-05-19T15:06:25;101039.66;;;16.75;58.65
25156;BME280;21913;52.456;13.634;2023-05-19T15:11:26;101031.81;;;16.74;58.88
25156;BME280;21913;52.456;13.634;2023-05-19T15:16:28;101027.47;;;16.73;58.62
25156;BME280;21913;52.456;13.634;2023-05-19T15:21:29;101024.88;;;16.71;58.85
25156;BME280;21913;52.456;13.634;2023-05-19T15:26:31;101007.44;;;16.70;58.68
25156;BME280;21913;52.456;13.634;2023-05-19T15:31:32;101011.78;;;16.68;58.84
25156;BME280;21913;52.456;13.634;2023-05-19T15:36:35;101008.31;;;16.68;59.00
25156;BME280;21913;52.456;13.634;2023-05-19T15:41:37;101017.91;;;16.67;58.91
25156;BME280;21913;52.456;13.634;2023-05-19T15:46:38;101024.03;;;16.66;59.21
25156;BME280;21913;52.456;13.634;2023-05-19T15:51:40;101022.28;;;16.65;59.13
25156;BME280;21913;52.456;13.634;2023-05-19T15:56:42;101004.88;;;16.64;59.12
25156;BME280;21913;52.456;13.634;2023-05-19T16:01:43;101011.84;;;16.62;59.28
25156;BME280;21913;52.456;13.634;2023-05-19T16:06:45;101008.38;;;16.62;59.41
25156;BME280;21913;52.456;13.634;2023-05-19T16:11:46;101005.75;;;16.62;59.19
25156;BME280;21913;52.456;13.634;2023-05-19T16:16:48;100991.88;;;16.60;59.16
25156;BME280;21913;52.456;13.634;2023-05-19T16:21:49;100990.13;;;16.59;59.31
25156;BME280;21913;52.456;13.634;2023-05-19T16:26:51;100989.25;;;16.56;59.57
25156;BME280;21913;52.456;13.634;2023-05-19T16:31:52;100988.41;;;16.56;59.51
25156;BME280;21913;52.456;13.634;2023-05-19T16:36:54;100977.94;;;16.56;59.32
25156;BME280;21913;52.456;13.634;2023-05-19T16:41:55;100978.84;;;16.55;59.73
25156;BME280;21913;52.456;13.634;2023-05-19T16:46:57;100978.00;;;16.53;59.61
25156;BME280;21913;52.456;13.634;2023-05-19T16:51:58;100974.50;;;16.54;59.53
25156;BME280;21913;52.456;13.634;2023-05-19T16:57:00;100978.84;;;16.52;59.67
25156;BME280;21913;52.456;13.634;2023-05-19T17:02:02;100981.47;;;16.52;59.64
25156;BME280;21913;52.456;13.634;2023-05-19T17:07:04;100978.00;;;16.51;59.71
25156;BME280;21913;52.456;13.634;2023-05-19T17:12:06;100979.78;;;16.49;59.64
25156;BME280;21913;52.456;13.634;2023-05-19T17:17:07;100977.16;;;16.49;59.79
25156;BME280;21913;52.456;13.634;2023-05-19T17:22:09;100980.66;;;16.48;59.87
25156;BME280;21913;52.456;13.634;2023-05-19T17:27:10;100978.94;;;16.47;59.87
25156;BME280;21913;52.456;13.634;2023-05-19T17:32:12;100972.81;;;16.47;59.72
25156;BME280;21913;52.456;13.634;2023-05-19T17:37:13;100978.91;;;16.46;60.13
25156;BME280;21913;52.456;13.634;2023-05-19T17:42:15;100971.97;;;16.45;59.91
25156;BME280;21913;52.456;13.634;2023-05-19T17:47:16;100974.56;;;16.45;59.95
25156;BME280;21913;52.456;13.634;2023-05-19T17:52:19;100978.97;;;16.43;60.14
25156;BME280;21913;52.456;13.634;2023-05-19T17:57:23;100979.81;;;16.43;60.11
25156;BME280;21913;52.456;13.634;2023-05-19T18:02:25;100992.00;;;16.41;60.29
25156;BME280;21913;52.456;13.634;2023-05-19T18:07:27;100995.50;;;16.42;60.25
25156;BME280;21913;52.456;13.634;2023-05-19T18:12:29;100998.97;;;16.41;60.14
25156;BME280;21913;52.456;13.634;2023-05-19T18:17:30;101000.72;;;16.40;60.32
25156;BME280;21913;52.456;13.634;2023-05-19T18:22:32;100997.28;;;16.38;60.40
25156;BME280;21913;52.456;13.634;2023-05-19T18:27:34;101004.25;;;16.38;60.29
25156;BME280;21913;52.456;13.634;2023-05-19T18:32:35;101007.72;;;16.38;60.24
25156;BME280;21913;52.456;13.634;2023-05-19T18:37:37;101006.84;;;16.36;60.35
25156;BME280;21913;52.456;13.634;2023-05-19T18:42:38;101011.22;;;16.36;60.38
25156;BME280;21913;52.456;13.634;2023-05-19T18:47:40;101005.13;;;16.35;60.58
25156;BME280;21913;52.456;13.634;2023-05-19T18:52:41;101003.41;;;16.34;60.68
25156;BME280;21913;52.456;13.634;2023-05-19T18:57:43;101018.22;;;16.34;60.78
25156;BME280;21913;52.456;13.634;2023-05-19T19:02:45;101023.44;;;16.32;60.68
25156;BME280;21913;52.456;13.634;2023-05-19T19:07:46;101026.94;;;16.33;60.56
25156;BME280;21913;52.456;13.634;2023-05-19T19:12:48;101038.25;;;16.32;60.84
25156;BME280;21913;52.456;13.634;2023-05-19T19:17:49;101035.66;;;16.28;60.51
25156;BME280;21913;52.456;13.634;2023-05-19T19:22:51;101047.81;;;16.29;60.74
25156;BME280;21913;52.456;13.634;2023-05-19T19:27:53;101053.06;;;16.29;60.63
25156;BME280;21913;52.456;13.634;2023-05-19T19:32:54;101054.81;;;16.29;60.71
25156;BME280;21913;52.456;13.634;2023-05-19T19:37:56;101054.81;;;16.27;60.71
25156;BME280;21913;52.456;13.634;2023-05-19T19:42:57;101054.81;;;16.27;60.81
25156;BME280;21913;52.456;13.634;2023-05-19T19:47:59;101053.97;;;16.27;60.75
25156;BME280;21913;52.456;13.634;2023-05-19T19:53:01;101062.69;;;16.26;60.92
25156;BME280;21913;52.456;13.634;2023-05-19T19:58:02;101068.75;;;16.26;60.81
25156;BME280;21913;52.456;13.634;2023-05-19T20:03:04;101067.00;;;16.25;60.77
25156;BME280;21913;52.456;13.634;2023-05-19T20:08:06;101063.53;;;16.25;61.02
25156;BME280;21913;52.456;13.634;2023-05-19T20:13:07;101060.06;;;16.24;60.81
25156;BME280;21913;52.456;13.634;2023-05-19T20:18:10;101067.03;;;16.24;60.81
25156;BME280;21913;52.456;13.634;2023-05-19T20:23:11;101073.09;;;16.24;60.77
25156;BME280;21913;52.456;13.634;2023-05-19T20:28:13;101077.47;;;16.22;61.03
25156;BME280;21913;52.456;13.634;2023-05-19T20:33:14;101070.50;;;16.23;60.81
25156;BME280;21913;52.456;13.634;2023-05-19T20:38:16;101079.22;;;16.22;61.09
25156;BME280;21913;52.456;13.634;2023-05-19T20:43:17;101069.66;;;16.21;61.08
25156;BME280;21913;52.456;13.634;2023-05-19T20:48:19;101066.19;;;16.20;61.19
25156;BME280;21913;52.456;13.634;2023-05-19T20:53:21;101067.91;;;16.20;60.92
25156;BME280;21913;52.456;13.634;2023-05-19T20:58:23;101067.91;;;16.20;60.88
25156;BME280;21913;52.456;13.634;2023-05-19T21:03:25;101074.03;;;16.20;60.93
25156;BME280;21913;52.456;13.634;2023-05-19T21:08:27;101074.91;;;16.18;61.36
25156;BME280;21913;52.456;13.634;2023-05-19T21:13:28;101075.75;;;16.18;61.31
25156;BME280;21913;52.456;13.634;2023-05-19T21:18:30;101075.75;;;16.18;61.02
25156;BME280;21913;52.456;13.634;2023-05-19T21:23:31;101076.66;;;16.17;61.01
25156;BME280;21913;52.456;13.634;2023-05-19T21:28:33;101083.63;;;16.17;61.37
25156;BME280;21913;52.456;13.634;2023-05-19T21:33:34;101078.41;;;16.15;61.36
25156;BME280;21913;52.456;13.634;2023-05-19T21:38:36;101078.41;;;16.15;61.21
25156;BME280;21913;52.456;13.634;2023-05-19T21:43:37;101083.63;;;16.15;61.44
25156;BME280;21913;52.456;13.634;2023-05-19T21:48:39;101086.25;;;16.15;61.24
25156;BME280;21913;52.456;13.634;2023-05-19T21:53:40;101083.63;;;16.14;61.13
25156;BME280;21913;52.456;13.634;2023-05-19T21:58:42;101083.63;;;16.14;61.49
25156;BME280;21913;52.456;13.634;2023-05-19T22:03:44;101078.41;;;16.14;61.14
25156;BME280;21913;52.456;13.634;2023-05-19T22:08:45;101077.56;;;16.12;61.08
25156;BME280;21913;52.456;13.634;2023-05-19T22:13:47;101083.63;;;16.12;61.42
25156;BME280;21913;52.456;13.634;2023-05-19T22:18:48;101069.75;;;16.10;61.12
25156;BME280;21913;52.456;13.634;2023-05-19T22:23:50;101070.59;;;16.09;61.23
25156;BME280;21913;52.456;13.634;2023-05-19T22:28:52;101067.13;;;16.09;61.54
25156;BME280;21913;52.456;13.634;2023-05-19T22:33:54;101071.50;;;16.10;61.41
25156;BME280;21913;52.456;13.634;2023-05-19T22:38:55;101069.72;;;16.09;61.29
25156;BME280;21913;52.456;13.634;2023-05-19T22:43:57;101074.09;;;16.08;61.41
25156;BME280;21913;52.456;13.634;2023-05-19T22:48:58;101075.84;;;16.08;61.51
25156;BME280;21913;52.456;13.634;2023-05-19T22:54:00;101073.22;;;16.08;61.63
25156;BME280;21913;52.456;13.634;2023-05-19T22:59:02;101071.50;;;16.07;61.42
25156;BME280;21913;52.456;13.634;2023-05-19T23:04:03;101060.19;;;16.06;61.42
25156;BME280;21913;52.456;13.634;2023-05-19T23:09:05;101065.41;;;16.06;61.33
25156;BME280;21913;52.456;13.634;2023-05-19T23:14:07;101066.28;;;16.05;61.46
25156;BME280;21913;52.456;13.634;2023-05-19T23:19:08;101072.38;;;16.06;61.56
25156;BME280;21913;52.456;13.634;2023-05-19T23:24:10;101073.25;;;16.04;61.56
25156;BME280;21913;52.456;13.634;2023-05-19T23:29:12;101070.66;;;16.04;61.34
25156;BME280;21913;52.456;13.634;2023-05-19T23:34:13;101068.88;;;16.03;61.48
25156;BME280;21913;52.456;13.634;2023-05-19T23:39:15;101068.03;;;16.03;61.63
25156;BME280;21913;52.456;13.634;2023-05-19T23:44:17;101065.41;;;16.03;61.57
25156;BME280;21913;52.456;13.634;2023-05-19T23:49:18;101064.53;;;16.02;61.68
25156;BME280;21913;52.456;13.634;2023-05-19T23:54:20;101063.69;;;16.02;61.45
25156;BME280;21913;52.456;13.634;2023-05-19T23:59:21;101055.88;;;16.00;61.58
